Terminal Aerodrome Forecast
Issued by NWS Goodland, KS

Home | Current Version | Previous Version | Text Only | Print | Product List | Glossary On
Versions: 1 2 3 4 5 6 7 8 9 10 11 12 13 14 15 16 17 18 19 20 21 22 23 24 25 26 27
000
FTUS43 KGLD 281517 AAB
TAFGLD
TAF AMD
KGLD 281517Z 2815/2912 20010KT P6SM OVC020
     FM281800 14008KT P6SM SCT015 SCT025
     FM282100 13012KT P6SM VCTS BKN050CB
      TEMPO 2822/2902 3SM +TSRA BR
     FM290500 32009KT P6SM SCT004 BKN300=

USA.gov is the U.S. government's official web portal to all federal, state and local government web resources and services.